Time;durP1;ratioP1;P1;durP2;ratioP2;P2;SDS_P1;SDS_P2;PMS_P1;PMS_P2;Temp;Humidity;BMP_temperature;BMP_pressure;BME280_temperature;BME280_humidity;BME280_pressure;Samples;Min_cycle;Max_cycle;Signal;HPM_P1;HPM_P2
2022/03/11 00:00:27;;;;;;;12.65;7.57;;;5.80;47.50;;;;;;5070808;28;20060;-52
2022/03/11 00:02:54;;;;;;;13.75;8.65;;;5.80;47.60;;;;;;5072477;28;20461;-46
2022/03/11 00:05:21;;;;;;;12.18;7.03;;;5.70;47.60;;;;;;5058470;28;20049;-49
2022/03/11 00:07:48;;;;;;;11.50;6.95;;;5.80;47.80;;;;;;5028218;28;20045;-49
2022/03/11 00:10:15;;;;;;;11.82;8.07;;;5.70;47.70;;;;;;5066066;28;20056;-48
2022/03/11 00:12:41;;;;;;;11.60;7.18;;;5.70;47.80;;;;;;5069920;28;20557;-47
2022/03/11 00:15:08;;;;;;;11.93;8.73;;;5.70;47.80;;;;;;5065002;28;20531;-51
2022/03/11 00:17:35;;;;;;;11.52;7.22;;;5.70;47.90;;;;;;5046761;28;20503;-47
2022/03/11 00:20:05;;;;;;;11.98;7.82;;;5.60;47.90;;;;;;5068501;28;20687;-49
2022/03/11 00:22:34;;;;;;;12.55;7.68;;;5.70;48.00;;;;;;5071808;28;20101;-49
2022/03/11 00:25:00;;;;;;;11.65;7.32;;;5.60;48.00;;;;;;5072542;28;20090;-47
2022/03/11 00:27:27;;;;;;;11.63;7.00;;;5.60;48.00;;;;;;5055960;28;20037;-47
2022/03/11 00:29:54;;;;;;;12.02;8.70;;;5.60;48.00;;;;;;5070293;28;20089;-47
2022/03/11 00:32:21;;;;;;;13.27;7.32;;;5.60;48.10;;;;;;5063526;28;20067;-44
2022/03/11 00:34:47;;;;;;;16.38;8.13;;;5.60;48.10;;;;;;5049296;28;20092;-48
2022/03/11 00:37:14;;;;;;;9.90;7.00;;;5.60;48.20;;;;;;5057833;28;20048;-46
2022/03/11 00:39:41;;;;;;;11.68;6.95;;;5.50;48.20;;;;;;5067217;28;20446;-45
2022/03/11 00:42:08;;;;;;;11.38;6.88;;;5.50;48.20;;;;;;5050090;28;20033;-50
2022/03/11 00:44:35;;;;;;;11.73;7.32;;;5.50;48.30;;;;;;5057035;28;20049;-45
2022/03/11 00:47:04;;;;;;;12.27;7.40;;;5.50;48.40;;;;;;5053950;28;20469;-50
2022/03/11 00:49:31;;;;;;;11.80;7.80;;;5.50;48.40;;;;;;5072053;28;20070;-45
2022/03/11 00:51:58;;;;;;;13.88;7.53;;;5.50;48.40;;;;;;5068925;28;20048;-50
2022/03/11 00:54:25;;;;;;;12.65;6.88;;;5.50;48.50;;;;;;5033101;28;20086;-47
2022/03/11 00:56:51;;;;;;;12.85;7.38;;;5.50;48.50;;;;;;5062149;28;20048;-45
2022/03/11 00:59:18;;;;;;;12.57;7.13;;;5.40;48.50;;;;;;5072261;28;20044;-45
2022/03/11 01:01:45;;;;;;;11.82;7.35;;;5.40;48.60;;;;;;5057296;28;20421;-49
2022/03/11 01:04:13;;;;;;;11.07;7.30;;;5.40;48.60;;;;;;5039215;28;20091;-46
2022/03/11 01:06:40;;;;;;;12.85;7.28;;;5.40;48.70;;;;;;5070240;28;20121;-45
2022/03/11 01:09:07;;;;;;;13.30;7.22;;;5.40;48.70;;;;;;5057376;28;20048;-47
2022/03/11 01:11:34;;;;;;;11.07;7.28;;;5.40;48.80;;;;;;5046470;28;20512;-48
2022/03/11 01:14:01;;;;;;;12.52;6.93;;;5.40;48.80;;;;;;5060003;28;20106;-46
2022/03/11 01:16:28;;;;;;;11.07;7.03;;;5.40;48.80;;;;;;5062439;28;20041;-45
2022/03/11 01:18:55;;;;;;;10.65;7.22;;;5.40;48.80;;;;;;5071441;28;20401;-46
2022/03/11 01:21:22;;;;;;;14.82;7.18;;;5.40;48.90;;;;;;5064088;28;20041;-46
2022/03/11 01:23:49;;;;;;;15.15;7.97;;;5.40;48.90;;;;;;5040370;28;20479;-52
2022/03/11 01:26:16;;;;;;;14.93;7.78;;;5.40;49.00;;;;;;5069681;28;20389;-48
2022/03/11 01:28:44;;;;;;;12.52;6.88;;;5.40;49.00;;;;;;5071162;28;20067;-46
2022/03/11 01:31:12;;;;;;;11.32;7.05;;;5.40;49.10;;;;;;5054336;28;20102;-49
2022/03/11 01:33:39;;;;;;;12.27;7.28;;;5.40;49.20;;;;;;5063561;28;20041;-52
2022/03/11 01:36:08;;;;;;;11.13;7.28;;;5.30;49.20;;;;;;5069938;28;20044;-50
2022/03/11 01:38:35;;;;;;;19.38;8.48;;;5.40;49.40;;;;;;5057820;28;20083;-46
2022/03/11 01:41:02;;;;;;;11.65;7.07;;;5.40;49.40;;;;;;5053025;28;20067;-48
2022/03/11 01:43:30;;;;;;;15.63;7.45;;;5.40;49.60;;;;;;5066765;28;20688;-49
2022/03/11 01:45:58;;;;;;;14.40;7.28;;;5.40;49.60;;;;;;5069687;28;20763;-50
2022/03/11 01:48:25;;;;;;;13.43;7.53;;;5.40;49.60;;;;;;5053034;28;20045;-49
2022/03/11 01:50:52;;;;;;;17.63;7.55;;;5.50;49.70;;;;;;5049246;28;20048;-46
2022/03/11 01:53:20;;;;;;;17.30;8.45;;;5.50;49.70;;;;;;5063947;28;20093;-46
2022/03/11 01:55:46;;;;;;;13.48;7.70;;;5.60;49.80;;;;;;5069489;28;20040;-52
2022/03/11 01:58:16;;;;;;;14.73;6.68;;;5.60;49.80;;;;;;5062985;28;20466;-52
2022/03/11 02:00:43;;;;;;;14.88;7.35;;;5.70;49.80;;;;;;5063390;28;20100;-47
2022/03/11 02:03:10;;;;;;;14.15;7.28;;;5.70;49.70;;;;;;5066613;28;20064;-49
2022/03/11 02:05:37;;;;;;;12.13;7.07;;;5.70;49.60;;;;;;5059956;28;20668;-46
2022/03/11 02:08:07;;;;;;;12.18;6.93;;;5.70;49.60;;;;;;5046981;28;20447;-52
2022/03/11 02:10:34;;;;;;;16.45;7.38;;;5.80;49.80;;;;;;5053579;28;20457;-46
2022/03/11 02:13:05;;;;;;;17.65;7.65;;;5.80;49.50;;;;;;5069471;28;20044;-47
2022/03/11 02:15:32;;;;;;;13.25;7.20;;;5.80;49.80;;;;;;5062902;28;20037;-50
2022/03/11 02:18:00;;;;;;;17.13;7.45;;;5.80;49.50;;;;;;5049594;28;20052;-46
2022/03/11 02:20:28;;;;;;;13.38;6.32;;;5.90;49.50;;;;;;5064219;28;20533;-52
2022/03/11 02:22:58;;;;;;;13.30;7.30;;;5.90;49.30;;;;;;5069258;28;20040;-47
2022/03/11 02:25:24;;;;;;;13.63;7.35;;;5.90;49.40;;;;;;5048129;28;20048;-46
2022/03/11 02:27:51;;;;;;;16.10;7.68;;;5.90;49.30;;;;;;5048323;28;20080;-47
2022/03/11 02:30:20;;;;;;;14.73;8.13;;;6.00;49.30;;;;;;5066702;28;20547;-51
2022/03/11 02:32:49;;;;;;;16.10;7.03;;;6.00;49.50;;;;;;5068920;28;20519;-48
2022/03/11 02:35:17;;;;;;;15.00;7.45;;;6.00;49.40;;;;;;5064927;28;20499;-46
2022/03/11 02:37:44;;;;;;;13.68;7.25;;;6.00;49.90;;;;;;5055942;28;20542;-48
2022/03/11 02:40:11;;;;;;;15.35;7.97;;;6.00;49.20;;;;;;5069439;28;20052;-51
2022/03/11 02:42:38;;;;;;;16.38;8.00;;;6.00;49.20;;;;;;5069386;28;20044;-50
2022/03/11 02:45:05;;;;;;;16.20;7.07;;;6.10;49.20;;;;;;5050609;28;20032;-47
2022/03/11 02:47:33;;;;;;;14.80;7.72;;;6.10;49.10;;;;;;5054650;28;20578;-48
2022/03/11 02:49:59;;;;;;;11.70;7.22;;;6.10;49.10;;;;;;5069473;28;20043;-49
2022/03/11 02:52:28;;;;;;;14.00;7.68;;;6.10;49.00;;;;;;5069247;28;20139;-46
2022/03/11 02:54:58;;;;;;;18.30;9.00;;;6.10;49.00;;;;;;5064138;28;20057;-51
2022/03/11 02:57:25;;;;;;;14.05;7.00;;;6.10;48.90;;;;;;5049062;28;20102;-48
2022/03/11 02:59:51;;;;;;;16.05;7.63;;;6.20;48.70;;;;;;5049801;28;20056;-46
2022/03/11 03:02:18;;;;;;;18.02;6.55;;;6.20;48.70;;;;;;5069374;28;20044;-49
2022/03/11 03:04:45;;;;;;;18.35;7.45;;;6.30;48.60;;;;;;5054198;28;20056;-49
2022/03/11 03:07:12;;;;;;;17.27;7.30;;;6.30;48.60;;;;;;5056097;28;20056;-46
2022/03/11 03:09:42;;;;;;;19.38;8.02;;;6.40;48.50;;;;;;5066742;28;20044;-49
2022/03/11 03:12:10;;;;;;;14.82;7.35;;;6.50;48.30;;;;;;5047954;28;20074;-49
2022/03/11 03:14:37;;;;;;;21.80;7.10;;;6.50;48.10;;;;;;5060979;28;20052;-49
2022/03/11 03:17:05;;;;;;;26.25;7.20;;;6.60;47.90;;;;;;5061364;28;20041;-50
2022/03/11 03:19:32;;;;;;;21.08;7.22;;;6.70;47.80;;;;;;5069454;28;20051;-49
2022/03/11 03:21:59;;;;;;;21.85;7.68;;;6.70;47.70;;;;;;5056152;28;20045;-49
2022/03/11 03:24:26;;;;;;;17.65;8.02;;;6.80;47.70;;;;;;5053269;28;20044;-51
2022/03/11 03:26:54;;;;;;;16.60;7.18;;;6.80;47.50;;;;;;5059682;28;20044;-46
2022/03/11 03:29:22;;;;;;;12.23;6.53;;;6.90;47.50;;;;;;5068376;28;20454;-50
2022/03/11 03:31:49;;;;;;;17.80;7.22;;;6.90;47.10;;;;;;5061525;28;20037;-47
2022/03/11 03:34:15;;;;;;;16.88;7.10;;;7.00;47.10;;;;;;5061117;28;20064;-46
2022/03/11 03:36:44;;;;;;;14.35;6.88;;;7.00;47.20;;;;;;5067929;28;20242;-49
2022/03/11 03:39:14;;;;;;;13.85;6.95;;;7.00;47.10;;;;;;5051394;28;20041;-54
2022/03/11 03:41:44;;;;;;;11.65;7.53;;;7.00;47.30;;;;;;5046369;28;20496;-47
2022/03/11 03:44:18;;;;;;;12.82;6.93;;;7.00;46.90;;;;;;5056719;28;20044;-50
2022/03/11 03:46:47;;;;;;;12.50;6.85;;;7.00;47.10;;;;;;5067939;28;20098;-47
2022/03/11 03:49:15;;;;;;;15.27;7.68;;;7.10;46.90;;;;;;5069077;28;20078;-50
2022/03/11 03:51:42;;;;;;;13.10;6.90;;;7.10;46.80;;;;;;5056526;28;20037;-49
2022/03/11 03:54:11;;;;;;;13.35;7.10;;;7.10;46.80;;;;;;5055715;28;20118;-49
2022/03/11 03:56:40;;;;;;;11.43;7.07;;;7.10;46.80;;;;;;5050522;28;20154;-50
2022/03/11 03:59:08;;;;;;;11.70;7.00;;;7.10;46.70;;;;;;5069583;28;20052;-49
2022/03/11 04:01:36;;;;;;;11.35;6.75;;;7.20;46.70;;;;;;5048765;28;20045;-52
2022/03/11 04:04:05;;;;;;;9.60;6.40;;;7.20;46.70;;;;;;5066896;28;20115;-52
2022/03/11 04:06:33;;;;;;;18.05;7.28;;;7.20;46.80;;;;;;5070814;28;20068;-49
2022/03/11 04:09:00;;;;;;;11.95;7.03;;;7.20;46.60;;;;;;5057979;28;20118;-47
2022/03/11 04:11:29;;;;;;;12.10;7.20;;;7.20;46.60;;;;;;5062668;28;20458;-47
2022/03/11 04:13:56;;;;;;;15.43;7.50;;;7.20;46.60;;;;;;5072966;28;20090;-47
2022/03/11 04:16:23;;;;;;;14.52;7.90;;;7.30;46.50;;;;;;5057961;28;20045;-46
2022/03/11 04:18:51;;;;;;;17.60;7.55;;;7.30;46.50;;;;;;5046554;28;20049;-48
2022/03/11 04:21:18;;;;;;;14.75;7.50;;;7.30;46.60;;;;;;5052618;28;20045;-49
2022/03/11 04:23:46;;;;;;;23.10;7.15;;;7.30;46.60;;;;;;5069380;28;20044;-50
2022/03/11 04:26:16;;;;;;;16.73;7.82;;;7.30;46.80;;;;;;5070846;28;20577;-49
2022/03/11 04:28:46;;;;;;;25.13;8.52;;;7.40;46.60;;;;;;5063792;28;20045;-47
2022/03/11 04:31:13;;;;;;;19.42;8.77;;;7.40;46.50;;;;;;5062002;28;20071;-52
2022/03/11 04:33:41;;;;;;;22.10;7.82;;;7.40;46.30;;;;;;5053674;28;20098;-47
2022/03/11 04:36:10;;;;;;;18.13;8.25;;;7.40;46.40;;;;;;5070832;28;20052;-48
2022/03/11 04:38:37;;;;;;;23.58;9.02;;;7.50;46.40;;;;;;5047776;28;20500;-47
2022/03/11 04:41:04;;;;;;;17.80;8.43;;;7.50;46.30;;;;;;5063414;28;20102;-50
2022/03/11 04:43:31;;;;;;;17.42;8.40;;;7.50;46.20;;;;;;5070844;28;20046;-48
2022/03/11 04:45:58;;;;;;;16.30;7.95;;;7.50;46.20;;;;;;5070677;28;20039;-48
2022/03/11 04:48:30;;;;;;;22.48;8.70;;;7.50;46.20;;;;;;5051482;28;20039;-51
2022/03/11 04:50:57;;;;;;;22.00;8.43;;;7.50;46.20;;;;;;5044508;28;20052;-50
2022/03/11 04:53:23;;;;;;;20.77;8.32;;;7.60;46.30;;;;;;5071533;28;20566;-50
2022/03/11 04:55:50;;;;;;;17.92;7.80;;;7.60;46.30;;;;;;5058565;28;20036;-51
2022/03/11 04:58:17;;;;;;;16.30;8.40;;;7.60;46.30;;;;;;5056223;28;20496;-49
2022/03/11 05:00:53;;;;;;;21.25;8.27;;;7.60;46.30;;;;;;5067160;28;20044;-49
2022/03/11 05:03:20;;;;;;;17.65;9.73;;;7.60;46.20;;;;;;5071677;28;20048;-47
2022/03/11 05:05:48;;;;;;;12.80;8.65;;;7.60;46.30;;;;;;5049642;28;20032;-48
2022/03/11 05:08:15;;;;;;;15.85;8.25;;;7.70;46.30;;;;;;5049163;28;20037;-47
2022/03/11 05:10:42;;;;;;;17.75;8.35;;;7.70;46.20;;;;;;5051533;28;20134;-49
2022/03/11 05:13:08;;;;;;;13.98;7.97;;;7.60;46.20;;;;;;5051209;28;20048;-49
2022/03/11 05:15:38;;;;;;;17.05;8.50;;;7.70;46.20;;;;;;5047412;28;20556;-48
2022/03/11 05:18:05;;;;;;;13.25;8.30;;;7.70;46.30;;;;;;5035148;28;20048;-49
2022/03/11 05:20:31;;;;;;;14.18;8.45;;;7.70;46.10;;;;;;5051245;28;20076;-49
2022/03/11 05:22:58;;;;;;;15.65;8.55;;;7.70;46.10;;;;;;5043178;28;20056;-49
2022/03/11 05:25:25;;;;;;;17.52;9.00;;;7.70;46.20;;;;;;5049609;28;20041;-51
2022/03/11 05:27:52;;;;;;;25.83;8.88;;;7.70;46.20;;;;;;5051808;28;20118;-46
2022/03/11 05:30:19;;;;;;;13.38;8.68;;;7.70;46.10;;;;;;5049600;28;20444;-49
2022/03/11 05:32:47;;;;;;;21.95;8.68;;;7.70;46.20;;;;;;5054783;28;20048;-46
2022/03/11 05:35:17;;;;;;;15.75;7.35;;;7.70;46.20;;;;;;5049030;28;20048;-50
2022/03/11 05:37:46;;;;;;;15.63;9.00;;;7.70;46.30;;;;;;5048898;28;20033;-47
2022/03/11 05:40:13;;;;;;;20.83;8.85;;;7.70;46.10;;;;;;5053602;28;20044;-48
2022/03/11 05:42:41;;;;;;;14.48;7.45;;;7.70;46.10;;;;;;5050148;28;20187;-47
2022/03/11 05:45:08;;;;;;;21.00;9.05;;;7.70;46.10;;;;;;5049033;28;20098;-50
2022/03/11 05:47:35;;;;;;;11.70;8.13;;;7.70;46.10;;;;;;5065885;28;20687;-49
2022/03/11 05:50:02;;;;;;;18.83;9.27;;;7.70;46.10;;;;;;5070236;28;20040;-50
2022/03/11 05:52:29;;;;;;;19.45;9.10;;;7.70;46.20;;;;;;5067015;28;20044;-47
2022/03/11 05:54:57;;;;;;;21.15;9.27;;;7.70;46.20;;;;;;5049289;28;20132;-48
2022/03/11 05:57:24;;;;;;;16.85;9.15;;;7.70;46.10;;;;;;5061863;28;20047;-50
2022/03/11 05:59:50;;;;;;;15.57;8.93;;;7.60;46.10;;;;;;5069944;28;20442;-52
2022/03/11 06:02:17;;;;;;;18.30;9.98;;;7.60;46.20;;;;;;5052509;28;20107;-49
2022/03/11 06:04:44;;;;;;;19.02;10.20;;;7.70;46.30;;;;;;5078565;22;20559;-49
2022/03/11 06:07:10;;;;;;;13.27;8.05;;;7.60;46.30;;;;;;5055307;28;20107;-44
2022/03/11 06:09:39;;;;;;;18.58;9.68;;;7.60;46.30;;;;;;5050298;28;20041;-45
2022/03/11 06:12:08;;;;;;;19.40;9.90;;;7.60;46.30;;;;;;5041595;28;20036;-44
2022/03/11 06:14:34;;;;;;;13.85;9.25;;;7.60;46.30;;;;;;5047985;28;20045;-45
2022/03/11 06:17:01;;;;;;;16.95;8.65;;;7.60;46.40;;;;;;5060520;28;20098;-44
2022/03/11 06:19:28;;;;;;;16.75;9.43;;;7.60;46.40;;;;;;5059881;28;20061;-50
2022/03/11 06:21:57;;;;;;;13.25;9.10;;;7.60;46.40;;;;;;5051404;28;20053;-46
2022/03/11 06:24:26;;;;;;;15.00;9.23;;;7.60;46.40;;;;;;5070227;28;20037;-47
2022/03/11 06:26:53;;;;;;;19.25;9.18;;;7.60;46.50;;;;;;5052417;28;20053;-49
2022/03/11 06:29:19;;;;;;;13.80;9.07;;;7.60;46.50;;;;;;5050533;28;20053;-46
2022/03/11 06:31:46;;;;;;;15.57;9.85;;;7.50;46.40;;;;;;5040569;28;20037;-45
2022/03/11 06:34:13;;;;;;;17.63;10.52;;;7.60;46.50;;;;;;5054486;28;20048;-48
2022/03/11 06:36:40;;;;;;;13.90;9.07;;;7.50;46.50;;;;;;5056345;28;20255;-46
2022/03/11 06:39:11;;;;;;;16.58;9.50;;;7.60;46.60;;;;;;5045404;28;20041;-49
2022/03/11 06:41:37;;;;;;;15.05;9.35;;;7.60;46.60;;;;;;5049079;28;20048;-50
2022/03/11 06:44:04;;;;;;;13.38;9.43;;;7.60;46.60;;;;;;5059117;28;20068;-46
2022/03/11 06:46:31;;;;;;;13.95;9.10;;;7.60;46.70;;;;;;5054913;28;20037;-46
2022/03/11 06:48:58;;;;;;;15.95;10.15;;;7.60;46.70;;;;;;5044770;28;20049;-49
2022/03/11 06:51:25;;;;;;;11.40;8.48;;;7.60;46.80;;;;;;5047896;28;20041;-50
2022/03/11 06:53:52;;;;;;;15.73;11.43;;;7.60;46.70;;;;;;5062307;28;20115;-45
2022/03/11 06:56:18;;;;;;;16.15;10.50;;;7.60;46.80;;;;;;5058140;28;20114;-46
2022/03/11 06:58:45;;;;;;;13.95;10.02;;;7.60;46.70;;;;;;5053263;28;20424;-46
2022/03/11 07:01:14;;;;;;;18.75;11.05;;;7.60;46.80;;;;;;5063425;28;20044;-46
2022/03/11 07:03:41;;;;;;;18.85;11.48;;;7.60;46.80;;;;;;5067985;28;20153;-46
2022/03/11 07:06:07;;;;;;;19.45;11.68;;;7.70;46.90;;;;;;5068273;28;20036;-47
2022/03/11 07:08:34;;;;;;;17.13;10.15;;;7.70;46.90;;;;;;5047069;28;20559;-46
2022/03/11 07:11:02;;;;;;;18.13;10.88;;;7.70;46.80;;;;;;5065867;28;20102;-47
2022/03/11 07:13:30;;;;;;;18.63;10.95;;;7.70;46.90;;;;;;5068123;28;20045;-49
2022/03/11 07:15:57;;;;;;;18.83;11.65;;;7.80;46.90;;;;;;5057822;28;20044;-49
2022/03/11 07:18:25;;;;;;;20.83;11.55;;;7.80;46.90;;;;;;5047090;28;20128;-47
2022/03/11 07:20:51;;;;;;;18.48;10.93;;;7.80;47.00;;;;;;5060147;28;20044;-48
2022/03/11 07:23:27;;;;;;;20.95;10.55;;;7.90;47.00;;;;;;5059378;28;20131;-46
2022/03/11 07:25:54;;;;;;;23.25;10.68;;;7.90;47.00;;;;;;5049806;28;20123;-50
2022/03/11 07:28:20;;;;;;;23.80;11.73;;;8.00;46.90;;;;;;5050022;28;20095;-50
2022/03/11 07:30:48;;;;;;;30.80;12.90;;;8.00;46.90;;;;;;5043380;28;20917;-50
2022/03/11 07:33:15;;;;;;;23.08;12.80;;;8.00;46.90;;;;;;5051703;28;20550;-50
2022/03/11 07:35:41;;;;;;;22.60;10.82;;;8.00;46.90;;;;;;5059463;28;20098;-49
2022/03/11 07:38:08;;;;;;;27.63;12.18;;;8.10;46.90;;;;;;5059921;28;20048;-49
2022/03/11 07:40:35;;;;;;;26.50;12.52;;;8.10;46.80;;;;;;5051827;28;20078;-51
2022/03/11 07:43:03;;;;;;;27.23;12.10;;;8.10;46.90;;;;;;5070592;28;20458;-50
2022/03/11 07:45:30;;;;;;;26.38;12.43;;;8.20;46.90;;;;;;5066855;28;20037;-49
2022/03/11 07:47:57;;;;;;;26.52;12.77;;;8.20;46.80;;;;;;5060465;28;20416;-45
2022/03/11 07:50:24;;;;;;;26.77;12.23;;;8.30;46.80;;;;;;5073121;28;20029;-50
2022/03/11 07:52:51;;;;;;;25.33;12.75;;;8.30;46.80;;;;;;5042080;28;20048;-49
2022/03/11 07:55:18;;;;;;;28.15;12.52;;;8.40;46.70;;;;;;5050343;28;20510;-48
2022/03/11 07:57:44;;;;;;;35.00;12.55;;;8.30;46.60;;;;;;5052307;28;20083;-50
2022/03/11 08:00:13;;;;;;;28.48;12.20;;;8.40;46.70;;;;;;5061459;28;20044;-50
2022/03/11 08:02:41;;;;;;;23.92;13.02;;;8.50;46.60;;;;;;5052630;28;20041;-49
2022/03/11 08:05:14;;;;;;;25.98;12.23;;;8.50;46.40;;;;;;5041776;28;20041;-49
2022/03/11 08:07:49;;;;;;;24.23;12.45;;;8.50;47.10;;;;;;5062484;28;20036;-49
2022/03/11 08:10:19;;;;;;;26.25;13.23;;;8.60;46.60;;;;;;5057137;28;20067;-48
2022/03/11 08:12:46;;;;;;;24.38;12.65;;;8.60;46.50;;;;;;5053298;28;20666;-50
2022/03/11 08:15:12;;;;;;;28.15;12.88;;;8.70;46.40;;;;;;5048261;28;20041;-50
2022/03/11 08:17:41;;;;;;;28.38;13.23;;;8.70;46.40;;;;;;5054939;28;20048;-49
2022/03/11 08:20:10;;;;;;;27.10;12.98;;;8.80;46.50;;;;;;5060174;28;20056;-48
2022/03/11 08:22:37;;;;;;;29.02;13.60;;;8.80;46.40;;;;;;5048349;28;20090;-50
2022/03/11 08:25:08;;;;;;;29.23;13.68;;;8.80;46.30;;;;;;5061744;28;20078;-50
2022/03/11 08:27:35;;;;;;;32.70;13.90;;;8.90;46.30;;;;;;5072237;28;20111;-50
2022/03/11 08:30:10;;;;;;;26.33;13.10;;;8.90;46.20;;;;;;5055240;28;20068;-48
2022/03/11 08:32:38;;;;;;;40.45;14.57;;;9.00;46.30;;;;;;5049755;28;20055;-49
2022/03/11 08:35:06;;;;;;;29.48;13.40;;;9.00;46.10;;;;;;5055659;28;20037;-50
2022/03/11 08:37:39;;;;;;;32.63;14.00;;;9.10;46.00;;;;;;5047241;28;20639;-47
2022/03/11 08:40:08;;;;;;;35.08;13.93;;;9.20;46.10;;;;;;5056549;28;20036;-50
2022/03/11 08:42:37;;;;;;;39.03;13.52;;;9.20;46.00;;;;;;5047544;28;20065;-50
2022/03/11 08:45:05;;;;;;;26.63;13.95;;;9.20;45.90;;;;;;5051271;28;20047;-50
2022/03/11 08:47:32;;;;;;;36.80;14.13;;;9.30;45.80;;;;;;5031489;28;20107;-50
2022/03/11 08:49:59;;;;;;;35.20;14.27;;;9.30;45.70;;;;;;5054984;28;20041;-51
2022/03/11 08:52:25;;;;;;;29.52;13.43;;;9.40;45.70;;;;;;5055998;28;20055;-50
2022/03/11 08:54:55;;;;;;;35.00;14.75;;;9.40;45.60;;;;;;5049491;28;20041;-48
2022/03/11 08:57:23;;;;;;;30.73;13.45;;;9.50;45.60;;;;;;5050247;28;20044;-49
2022/03/11 08:59:50;;;;;;;25.73;14.68;;;9.50;45.50;;;;;;5017031;28;20048;-48
2022/03/11 09:02:17;;;;;;;38.80;14.20;;;9.60;45.40;;;;;;5056897;28;20040;-46
2022/03/11 09:04:46;;;;;;;29.40;13.45;;;9.60;45.50;;;;;;5067335;28;20096;-48
2022/03/11 09:07:13;;;;;;;27.50;13.68;;;9.70;45.50;;;;;;5062594;28;20527;-49
2022/03/11 09:09:39;;;;;;;30.13;14.88;;;9.70;45.30;;;;;;5051350;28;20051;-49
2022/03/11 09:12:08;;;;;;;28.48;15.73;;;9.80;45.20;;;;;;5065793;28;20032;-50
2022/03/11 09:14:35;;;;;;;32.13;14.88;;;9.80;45.20;;;;;;5070437;28;20098;-49
2022/03/11 09:17:02;;;;;;;25.10;14.48;;;9.80;45.00;;;;;;5051947;28;20097;-49
2022/03/11 09:19:29;;;;;;;29.35;13.73;;;9.90;45.00;;;;;;5059172;28;20106;-49
2022/03/11 09:21:56;;;;;;;27.02;13.30;;;10.00;45.00;;;;;;5053177;28;20049;-50
2022/03/11 09:24:22;;;;;;;32.97;15.25;;;10.00;44.80;;;;;;5070363;28;20550;-47
2022/03/11 09:27:01;;;;;;;35.38;14.75;;;10.10;44.90;;;;;;5071979;28;20059;-50
2022/03/11 09:29:30;;;;;;;28.13;15.05;;;10.10;44.90;;;;;;5061076;28;20377;-49
2022/03/11 09:31:57;;;;;;;23.65;12.75;;;10.10;44.80;;;;;;5051142;28;20516;-51
2022/03/11 09:34:25;;;;;;;29.08;14.85;;;10.20;44.80;;;;;;5037329;28;20095;-48
2022/03/11 09:36:52;;;;;;;29.77;13.82;;;10.20;44.80;;;;;;5051235;28;20044;-50
2022/03/11 09:39:20;;;;;;;30.85;13.85;;;10.30;44.80;;;;;;5048179;28;20071;-50
2022/03/11 09:41:48;;;;;;;23.90;14.65;;;10.40;44.90;;;;;;5054214;28;20086;-48
2022/03/11 09:44:19;;;;;;;35.33;14.77;;;10.40;44.90;;;;;;5050910;28;20049;-50
2022/03/11 09:46:47;;;;;;;33.53;14.52;;;10.50;44.80;;;;;;5047579;28;20048;-50
2022/03/11 09:49:15;;;;;;;31.10;14.63;;;10.50;44.60;;;;;;5039142;28;20049;-49
2022/03/11 09:51:45;;;;;;;26.95;13.13;;;10.60;44.50;;;;;;5052168;28;20177;-48
2022/03/11 09:54:12;;;;;;;26.08;13.02;;;10.60;44.60;;;;;;5043362;28;20049;-49
2022/03/11 09:56:40;;;;;;;35.25;15.23;;;10.70;44.80;;;;;;5051448;28;20048;-51
2022/03/11 09:59:08;;;;;;;35.67;15.43;;;10.80;44.90;;;;;;5053749;28;20174;-50
2022/03/11 10:01:40;;;;;;;29.95;15.70;;;10.80;44.80;;;;;;5050620;28;20036;-50
2022/03/11 10:04:09;;;;;;;29.02;13.63;;;10.90;44.60;;;;;;5049812;28;20037;-50
2022/03/11 10:06:38;;;;;;;30.35;14.88;;;10.90;44.50;;;;;;5046293;28;20037;-50
2022/03/11 10:09:07;;;;;;;26.70;13.57;;;11.00;45.20;;;;;;5060747;28;20044;-50
2022/03/11 10:11:36;;;;;;;27.02;14.20;;;11.10;44.70;;;;;;5070282;28;20048;-50
2022/03/11 10:14:08;;;;;;;20.98;14.45;;;11.10;44.40;;;;;;5059396;28;20049;-50
2022/03/11 10:16:36;;;;;;;18.80;12.52;;;11.20;44.40;;;;;;5023625;28;20459;-50
2022/03/11 10:19:06;;;;;;;22.92;13.32;;;11.30;44.20;;;;;;5063674;28;20616;-49
2022/03/11 10:21:37;;;;;;;18.58;13.13;;;11.30;44.10;;;;;;5069998;28;20049;-50
2022/03/11 10:24:07;;;;;;;24.38;13.32;;;11.40;44.20;;;;;;5045866;28;20046;-50
2022/03/11 10:26:42;;;;;;;21.77;13.35;;;11.50;43.90;;;;;;5046528;28;20443;-50
2022/03/11 10:29:16;;;;;;;21.75;13.63;;;11.50;43.50;;;;;;5031752;28;20136;-52
2022/03/11 10:31:46;;;;;;;24.92;13.73;;;11.60;43.70;;;;;;5034336;28;20040;-51
2022/03/11 10:34:22;;;;;;;22.70;13.18;;;11.60;43.60;;;;;;5043269;28;20045;-49
2022/03/11 10:36:53;;;;;;;20.05;13.63;;;11.70;43.60;;;;;;5043542;28;20095;-49
2022/03/11 10:39:28;;;;;;;20.85;13.07;;;11.80;43.20;;;;;;5045636;28;20048;-48
2022/03/11 10:42:19;;;;;;;22.67;12.93;;;11.80;43.10;;;;;;5038818;28;20073;-48
2022/03/11 10:45:06;;;;;;;21.17;12.85;;;11.90;43.10;;;;;;5033280;28;20041;-50
2022/03/11 10:47:38;;;;;;;25.65;14.13;;;11.90;43.50;;;;;;5050796;28;20040;-51
2022/03/11 10:50:11;;;;;;;25.37;14.50;;;12.00;43.20;;;;;;5057553;28;20107;-50
2022/03/11 10:52:48;;;;;;;28.90;14.50;;;12.10;43.20;;;;;;5038281;28;20299;-49
2022/03/11 10:55:23;;;;;;;25.33;13.52;;;12.10;42.80;;;;;;5056250;28;20074;-50
2022/03/11 10:57:57;;;;;;;21.65;12.98;;;12.20;43.10;;;;;;5064948;28;20757;-50
2022/03/11 11:00:29;;;;;;;19.40;12.93;;;12.20;42.80;;;;;;5030796;28;20053;-58
2022/03/11 11:02:58;;;;;;;20.13;13.13;;;12.30;42.70;;;;;;5043013;28;20048;-58
2022/03/11 11:05:26;;;;;;;21.38;12.48;;;12.40;42.60;;;;;;5040036;28;20087;-59
2022/03/11 11:07:54;;;;;;;19.63;14.07;;;12.40;42.80;;;;;;5027809;28;20040;-58
2022/03/11 11:10:22;;;;;;;21.35;12.80;;;12.50;42.60;;;;;;5053112;28;20098;-58
2022/03/11 11:12:50;;;;;;;21.40;13.75;;;12.60;42.80;;;;;;5046229;28;20041;-57
2022/03/11 11:15:18;;;;;;;20.42;12.50;;;12.60;42.70;;;;;;5063673;28;20485;-59
2022/03/11 11:17:52;;;;;;;26.42;14.02;;;12.70;42.80;;;;;;5071321;28;20101;-59
2022/03/11 11:20:39;;;;;;;20.98;13.95;;;12.80;42.90;;;;;;5041339;28;20452;-59
2022/03/11 11:23:07;;;;;;;22.38;14.18;;;12.80;42.80;;;;;;5066550;28;20052;-59
2022/03/11 11:25:36;;;;;;;24.65;14.85;;;12.90;42.50;;;;;;5066463;28;20446;-58
2022/03/11 11:28:23;;;;;;;25.52;12.93;;;13.00;42.60;;;;;;5074931;28;20549;-58
2022/03/11 11:30:54;;;;;;;26.33;13.70;;;13.10;42.40;;;;;;5047013;28;20040;-58
2022/03/11 11:33:22;;;;;;;21.77;13.43;;;13.20;42.50;;;;;;5064263;28;20411;-59
2022/03/11 11:35:56;;;;;;;26.73;13.95;;;13.20;42.10;;;;;;5074348;28;20286;-58
2022/03/11 11:38:31;;;;;;;31.48;13.52;;;13.30;42.00;;;;;;5060104;28;20083;-59
2022/03/11 11:41:01;;;;;;;28.13;13.25;;;13.40;42.30;;;;;;5048577;28;20045;-58
2022/03/11 11:43:30;;;;;;;22.85;12.48;;;13.50;42.00;;;;;;5035540;28;20049;-58
2022/03/11 11:46:12;;;;;;;34.17;14.02;;;13.50;42.00;;;;;;5054080;28;20041;-58
2022/03/11 11:48:48;;;;;;;25.52;13.57;;;13.60;41.50;;;;;;5054015;28;20041;-59
2022/03/11 11:51:18;;;;;;;32.17;13.68;;;13.70;41.80;;;;;;5055385;28;20102;-60
2022/03/11 11:54:08;;;;;;;26.15;14.40;;;13.80;41.30;;;;;;5059382;28;20455;-60
2022/03/11 11:56:37;;;;;;;26.67;12.98;;;13.80;41.30;;;;;;5051631;28;20409;-60
2022/03/11 11:59:17;;;;;;;28.52;13.23;;;13.90;41.40;;;;;;5053016;28;20041;-60
2022/03/11 12:01:52;;;;;;;26.05;13.52;;;14.00;41.30;;;;;;5055490;28;20033;-59
2022/03/11 12:04:22;;;;;;;26.73;12.77;;;14.10;41.60;;;;;;5041721;28;20492;-60
2022/03/11 12:06:59;;;;;;;22.70;12.45;;;14.20;41.10;;;;;;5054664;28;20047;-60
2022/03/11 12:09:38;;;;;;;18.90;12.02;;;14.20;41.40;;;;;;5052387;28;20087;-60
2022/03/11 12:12:24;;;;;;;21.88;13.57;;;14.40;41.00;;;;;;5054317;28;20045;-60
2022/03/11 12:14:57;;;;;;;22.60;13.38;;;14.40;40.60;;;;;;5054212;28;20528;-60
2022/03/11 12:17:36;;;;;;;20.58;13.05;;;14.40;40.70;;;;;;5033890;28;20409;-60
2022/03/11 12:20:38;;;;;;;21.27;12.40;;;14.50;40.70;;;;;;5073046;28;20049;-60
2022/03/11 12:23:17;;;;;;;22.17;12.68;;;14.60;41.00;;;;;;5075106;28;20090;-60
2022/03/11 12:26:00;;;;;;;19.83;12.25;;;14.60;41.00;;;;;;5040242;28;20096;-59
2022/03/11 12:28:29;;;;;;;17.27;11.88;;;14.70;40.80;;;;;;5073938;22;20045;-52
2022/03/11 12:31:05;;;;;;;16.10;12.20;;;14.80;41.00;;;;;;5052835;28;20120;-53
2022/03/11 12:33:38;;;;;;;19.70;13.15;;;14.80;40.90;;;;;;5048373;28;20452;-50
2022/03/11 12:36:06;;;;;;;;;;;14.90;40.60;;;;;;5045959;28;20052;-49
2022/03/11 12:38:37;;;;;;;16.80;12.02;;;15.00;40.70;;;;;;5049273;28;19920;-48
2022/03/11 12:41:10;;;;;;;19.83;12.68;;;15.10;40.70;;;;;;5050275;28;20450;-50
2022/03/11 12:43:38;;;;;;;17.40;12.02;;;15.10;40.40;;;;;;5051415;28;20053;-50
2022/03/11 12:46:06;;;;;;;20.23;12.63;;;15.20;40.30;;;;;;5046746;28;20046;-50
2022/03/11 12:48:38;;;;;;;23.08;13.48;;;15.30;40.20;;;;;;5051579;28;20744;-51